createdAt,value
2022-09-04T00:00:10.088Z,101654.75
2022-09-04T00:03:04.656Z,101657.78
2022-09-04T00:05:37.438Z,101653.59
2022-09-04T00:08:25.626Z,101659.97
2022-09-04T00:11:03.302Z,101668.25
2022-09-04T00:13:37.752Z,101660.66
2022-09-04T00:16:10.983Z,101660.09
2022-09-04T00:18:47.752Z,101663.94
2022-09-04T00:21:22.620Z,101664.06
2022-09-04T00:23:56.688Z,101670.44
2022-09-04T00:26:39.406Z,101669.84
2022-09-04T00:29:19.156Z,101667.69
2022-09-04T00:31:55.142Z,101666.38
2022-09-04T00:34:42.923Z,101660.16
2022-09-04T00:37:16.553Z,101665.78
2022-09-04T00:39:51.227Z,101662.59
2022-09-04T00:42:38.428Z,101655.88
2022-09-04T00:45:24.360Z,101661.63
2022-09-04T00:48:28.486Z,101660.34
2022-09-04T00:51:17.181Z,101666.81
2022-09-04T00:54:16.578Z,101670.16
2022-09-04T00:57:14.153Z,101665.88
2022-09-04T01:00:06.093Z,101666.94
2022-09-04T01:02:56.613Z,101663.91
2022-09-04T01:05:40.149Z,101656.66
2022-09-04T01:08:24.544Z,101671.53
2022-09-04T01:11:09.727Z,101669.97
2022-09-04T01:13:44.452Z,101666.75
2022-09-04T01:16:22.436Z,101675.59
2022-09-04T01:18:58.661Z,101665.06
2022-09-04T01:21:59.151Z,101670.31
2022-09-04T01:24:52.875Z,101665.66
2022-09-04T01:27:28.147Z,101665.00
2022-09-04T01:30:06.404Z,101663.66
2022-09-04T01:32:45.903Z,101664.16
2022-09-04T01:35:27.321Z,101659.13
2022-09-04T01:38:10.576Z,101662.47
2022-09-04T01:40:45.332Z,101662.00
2022-09-04T01:43:18.630Z,101663.06
2022-09-04T01:46:11.540Z,101671.78
2022-09-04T01:48:48.390Z,101668.69
2022-09-04T01:51:27.843Z,101669.03
2022-09-04T01:54:09.942Z,101663.31
2022-09-04T01:56:45.900Z,101666.31
2022-09-04T01:59:26.932Z,101668.69
2022-09-04T02:02:05.802Z,101665.47
2022-09-04T02:04:43.541Z,101667.03
2022-09-04T02:07:29.594Z,101670.38
2022-09-04T02:10:11.930Z,101667.41
2022-09-04T02:12:50.943Z,101667.25
2022-09-04T02:15:35.410Z,101663.19
2022-09-04T02:18:11.678Z,101674.69
2022-09-04T02:20:46.026Z,101673.94
2022-09-04T02:23:24.577Z,101675.78
2022-09-04T02:26:00.468Z,101677.66
2022-09-04T02:28:39.569Z,101676.56
2022-09-04T02:31:20.717Z,101671.81
2022-09-04T02:33:58.047Z,101671.94
2022-09-04T02:36:35.776Z,101673.25
2022-09-04T02:39:17.298Z,101677.78
2022-09-04T02:41:58.892Z,101679.47
2022-09-04T02:44:40.962Z,101679.09
2022-09-04T02:47:22.541Z,101679.09
2022-09-04T02:50:00.879Z,101685.81
2022-09-04T02:52:56.292Z,101686.06
2022-09-04T02:55:50.558Z,101687.25
2022-09-04T02:58:32.350Z,101682.72
2022-09-04T03:01:08.746Z,101689.78
2022-09-04T03:03:48.220Z,101687.13
2022-09-04T03:06:24.863Z,101691.31
2022-09-04T03:09:00.786Z,101699.47
2022-09-04T03:11:36.754Z,101709.41
2022-09-04T03:14:13.291Z,101707.94
2022-09-04T03:16:46.623Z,101710.72
2022-09-04T03:19:20.875Z,101710.47
2022-09-04T03:21:56.901Z,101716.44
2022-09-04T03:24:31.888Z,101717.75
2022-09-04T03:27:05.156Z,101718.13
2022-09-04T03:29:41.480Z,101719.53
2022-09-04T03:32:21.837Z,101715.69
2022-09-04T03:34:58.441Z,101725.00
2022-09-04T03:37:52.511Z,101720.25
2022-09-04T03:40:33.227Z,101726.78
2022-09-04T03:43:15.116Z,101727.72
2022-09-04T03:45:52.814Z,101735.97
2022-09-04T03:48:40.699Z,101738.19
2022-09-04T03:51:25.640Z,101741.16
2022-09-04T03:54:08.812Z,101732.66
2022-09-04T03:56:52.136Z,101735.75
2022-09-04T03:59:38.032Z,101749.25
2022-09-04T04:02:16.897Z,101747.28
2022-09-04T04:05:13.949Z,101742.81
2022-09-04T04:07:57.544Z,101756.28
2022-09-04T04:10:33.714Z,101752.53
2022-09-04T04:13:21.952Z,101763.13
2022-09-04T04:16:09.424Z,101757.97
2022-09-04T04:18:55.416Z,101760.16
2022-09-04T04:21:36.407Z,101767.44
2022-09-04T04:24:22.727Z,101766.72
2022-09-04T04:27:07.831Z,101760.41
2022-09-04T04:29:53.547Z,101775.75
2022-09-04T04:32:35.623Z,101774.66
2022-09-04T04:35:18.969Z,101783.84
2022-09-04T04:38:03.323Z,101791.03
2022-09-04T04:40:51.615Z,101786.47
2022-09-04T04:43:27.435Z,101787.31
2022-09-04T04:46:03.743Z,101797.53
2022-09-04T04:49:07.836Z,101784.75
2022-09-04T04:51:58.099Z,101788.31
2022-09-04T04:54:47.124Z,101794.00
2022-09-04T04:57:28.644Z,101793.81
2022-09-04T05:00:06.746Z,101784.34
2022-09-04T05:02:42.214Z,101796.66
2022-09-04T05:05:18.380Z,101797.47
2022-09-04T05:07:54.349Z,101801.78
2022-09-04T05:10:31.760Z,101794.84
2022-09-04T05:13:13.031Z,101800.94
2022-09-04T05:16:07.831Z,101807.56
2022-09-04T05:18:46.123Z,101815.84
2022-09-04T05:21:22.777Z,101822.13
2022-09-04T05:23:58.345Z,101817.72
2022-09-04T05:26:35.865Z,101827.13
2022-09-04T05:29:13.503Z,101820.59
2022-09-04T05:31:52.478Z,101822.78
2022-09-04T05:34:30.376Z,101826.84
2022-09-04T05:37:11.530Z,101831.34
2022-09-04T05:39:57.319Z,101830.09
2022-09-04T05:42:45.487Z,101831.44
2022-09-04T05:45:25.372Z,101836.34
2022-09-04T05:48:03.002Z,101840.56
2022-09-04T05:50:49.519Z,101840.44
2022-09-04T05:54:00.869Z,101840.34
2022-09-04T05:57:09.156Z,101839.31
2022-09-04T05:59:56.938Z,101841.94
2022-09-04T06:03:05.469Z,101850.47
2022-09-04T06:05:47.217Z,101852.25
2022-09-04T06:08:42.814Z,101852.22
2022-09-04T06:11:55.409Z,101837.91
2022-09-04T06:14:46.029Z,101843.69
2022-09-04T06:17:31.673Z,101843.31
2022-09-04T06:20:30.310Z,101842.03
2022-09-04T06:23:20.263Z,101849.38
2022-09-04T06:26:18.966Z,101848.63
2022-09-04T06:29:11.455Z,101853.50
2022-09-04T06:32:13.168Z,101859.22
2022-09-04T06:35:09.514Z,101861.47
2022-09-04T06:37:52.750Z,101852.44
2022-09-04T06:40:39.444Z,101854.91
2022-09-04T06:43:20.812Z,101861.69
2022-09-04T06:46:02.373Z,101856.84
2022-09-04T06:48:44.320Z,101858.25
2022-09-04T06:51:26.982Z,101858.75
2022-09-04T06:54:06.885Z,101858.56
2022-09-04T06:56:55.761Z,101859.03
2022-09-04T06:59:47.865Z,101858.28
2022-09-04T07:02:28.806Z,101857.91
2022-09-04T07:05:09.867Z,101862.72
2022-09-04T07:07:46.294Z,101858.63
2022-09-04T07:10:21.568Z,101862.94
2022-09-04T07:13:35.621Z,101863.38
2022-09-04T07:16:31.046Z,101874.97
2022-09-04T07:19:42.665Z,101869.13
2022-09-04T07:22:35.957Z,101869.50
2022-09-04T07:25:22.277Z,101869.66
2022-09-04T07:28:11.187Z,101870.88
2022-09-04T07:30:45.342Z,101874.28
2022-09-04T07:33:21.421Z,101870.00
2022-09-04T07:35:59.418Z,101873.63
2022-09-04T07:38:36.956Z,101881.31
2022-09-04T07:41:17.580Z,101884.84
2022-09-04T07:43:55.068Z,101885.78
2022-09-04T07:46:33.388Z,101893.22
2022-09-04T07:49:10.058Z,101896.19
2022-09-04T07:51:47.512Z,101901.97
2022-09-04T07:54:51.064Z,101894.16
2022-09-04T07:57:43.042Z,101899.72
2022-09-04T08:00:17.952Z,101901.72
2022-09-04T08:03:16.898Z,101901.28
2022-09-04T08:05:53.086Z,101914.44
2022-09-04T08:08:58.405Z,101904.28
2022-09-04T08:11:50.481Z,101906.31
2022-09-04T08:14:32.577Z,101912.78
2022-09-04T08:17:43.014Z,101912.94
2022-09-04T08:20:37.941Z,101913.31
2022-09-04T08:23:24.522Z,101922.59
2022-09-04T08:26:12.102Z,101923.72
2022-09-04T08:29:05.262Z,101925.03
2022-09-04T08:31:43.399Z,101931.25
2022-09-04T08:34:52.994Z,101938.13
2022-09-04T08:37:29.208Z,101936.34
2022-09-04T08:40:28.693Z,101939.78
2022-09-04T08:43:28.015Z,101935.97
2022-09-04T08:46:36.444Z,101943.94
2022-09-04T08:49:34.805Z,101931.78
2022-09-04T08:52:43.697Z,101927.25
2022-09-04T08:55:58.905Z,101925.88
2022-09-04T08:59:19.760Z,101930.34
2022-09-04T09:02:26.841Z,101934.25
2022-09-04T09:05:43.119Z,101922.06
2022-09-04T09:08:51.835Z,101933.63
2022-09-04T09:11:50.547Z,101923.53
2022-09-04T09:14:53.267Z,101925.78
2022-09-04T09:17:39.253Z,101923.47
2022-09-04T09:20:27.945Z,101928.16
2022-09-04T09:23:20.669Z,101909.56
2022-09-04T09:25:58.006Z,101923.50
2022-09-04T09:29:13.438Z,101919.00
2022-09-04T09:32:19.696Z,101918.50
2022-09-04T09:35:25.830Z,101921.31
2022-09-04T09:38:31.270Z,101923.19
2022-09-04T09:41:45.735Z,101927.59
2022-09-04T09:45:01.083Z,101924.09
2022-09-04T09:48:11.509Z,101925.63
2022-09-04T09:51:30.718Z,101914.16
2022-09-04T09:54:48.999Z,101914.44
2022-09-04T09:57:45.219Z,101917.13
2022-09-04T10:00:17.176Z,101902.56
2022-09-04T10:03:29.151Z,101910.19
2022-09-04T10:06:30.991Z,101910.41
2022-09-04T10:09:37.355Z,101908.34
2022-09-04T10:12:42.708Z,101900.72
2022-09-04T10:15:52.742Z,101900.91
2022-09-04T10:19:06.212Z,101909.81
2022-09-04T10:22:05.164Z,101907.19
2022-09-04T10:25:02.364Z,101912.00
2022-09-04T10:27:55.010Z,101913.75
2022-09-04T10:30:30.857Z,101906.28
2022-09-04T10:33:26.665Z,101908.00
2022-09-04T10:36:06.556Z,101913.25
2022-09-04T10:38:58.779Z,101912.75
2022-09-04T10:41:55.514Z,101914.16
2022-09-04T10:44:57.451Z,101906.91
2022-09-04T10:47:45.013Z,101902.22
2022-09-04T10:50:26.446Z,101913.03
2022-09-04T10:53:31.508Z,101906.66
2022-09-04T10:56:18.244Z,101911.84
2022-09-04T10:59:18.329Z,101911.03
2022-09-04T11:02:18.769Z,101907.44
2022-09-04T11:05:36.518Z,101901.06
2022-09-04T11:08:39.490Z,101898.91
2022-09-04T11:11:46.981Z,101898.38
2022-09-04T11:14:43.976Z,101907.59
2022-09-04T11:17:43.013Z,101902.81
2022-09-04T11:20:46.357Z,101904.59
2022-09-04T11:24:01.729Z,101893.22
2022-09-04T11:27:16.185Z,101888.22
2022-09-04T11:30:04.250Z,101886.28
2022-09-04T11:33:14.729Z,101884.56
2022-09-04T11:36:10.090Z,101882.78
2022-09-04T11:39:16.454Z,101889.38
2022-09-04T11:42:19.557Z,101881.25
2022-09-04T11:45:29.067Z,101881.16
2022-09-04T11:48:24.309Z,101877.84
2022-09-04T11:51:22.509Z,101877.63
2022-09-04T11:54:09.430Z,101874.38
2022-09-04T11:57:08.205Z,101881.97
2022-09-04T12:00:12.782Z,101882.28
2022-09-04T12:03:26.395Z,101882.38
2022-09-04T12:06:16.827Z,101860.81
2022-09-04T12:09:19.558Z,101867.31
2022-09-04T12:12:21.162Z,101864.28
2022-09-04T12:15:08.818Z,101877.41
2022-09-04T12:18:09.731Z,101875.69
2022-09-04T12:21:06.693Z,101880.44
2022-09-04T12:24:02.847Z,101887.28
2022-09-04T12:26:59.713Z,101876.41
2022-09-04T12:29:55.078Z,101881.31
2022-09-04T12:33:24.691Z,101876.75
2022-09-04T12:36:21.394Z,101877.41
2022-09-04T12:39:17.655Z,101883.91
2022-09-04T12:41:56.132Z,101881.84
2022-09-04T12:44:35.378Z,101872.22
2022-09-04T12:47:15.782Z,101864.94
2022-09-04T12:50:10.675Z,101865.31
2022-09-04T12:52:57.769Z,101881.75
2022-09-04T12:55:36.385Z,101860.25
2022-09-04T12:58:21.336Z,101859.63
2022-09-04T13:01:02.762Z,101864.47
2022-09-04T13:03:42.851Z,101862.09
2022-09-04T13:06:24.148Z,101875.09
2022-09-04T13:09:12.548Z,101879.28
2022-09-04T13:11:48.605Z,101871.06
2022-09-04T13:14:44.604Z,101867.09
2022-09-04T13:17:23.347Z,101860.88
2022-09-04T13:20:02.726Z,101864.25
2022-09-04T13:22:55.015Z,101866.25
2022-09-04T13:25:42.349Z,101869.13
2022-09-04T13:28:23.504Z,101867.28
2022-09-04T13:31:03.420Z,101865.59
2022-09-04T13:33:49.022Z,101875.63
2022-09-04T13:36:31.269Z,101870.88
2022-09-04T13:39:39.677Z,101879.31
2022-09-04T13:42:55.216Z,101870.50
2022-09-04T13:45:26.391Z,101876.81
2022-09-04T13:47:59.575Z,101878.56
2022-09-04T13:50:37.562Z,101878.47
2022-09-04T13:53:16.194Z,101871.91
2022-09-04T13:55:51.617Z,101882.25
2022-09-04T13:58:24.941Z,101869.16
2022-09-04T14:00:57.330Z,101873.00
2022-09-04T14:03:42.488Z,101876.97
2022-09-04T14:06:15.815Z,101871.75
2022-09-04T14:09:00.189Z,101885.31
2022-09-04T14:12:15.486Z,101874.34
2022-09-04T14:15:33.268Z,101889.78
2022-09-04T14:18:18.671Z,101873.19
2022-09-04T14:20:57.873Z,101882.53
2022-09-04T14:23:41.077Z,101872.91
2022-09-04T14:26:25.637Z,101888.91
2022-09-04T14:29:05.063Z,101886.59
2022-09-04T14:31:46.679Z,101884.78
2022-09-04T14:34:36.221Z,101880.41
2022-09-04T14:37:17.458Z,101888.09
2022-09-04T14:39:52.352Z,101886.50
2022-09-04T14:42:42.651Z,101882.19
2022-09-04T14:45:23.470Z,101874.44
2022-09-04T14:47:57.507Z,101878.16
2022-09-04T14:50:31.171Z,101885.31
2022-09-04T14:53:04.638Z,101874.09
2022-09-04T14:55:35.819Z,101882.88
2022-09-04T14:58:11.848Z,101888.28
2022-09-04T15:01:01.020Z,101879.06
2022-09-04T15:03:38.482Z,101893.16
2022-09-04T15:06:19.318Z,101891.81
2022-09-04T15:08:51.590Z,101882.19
2022-09-04T15:11:31.562Z,101880.06
2022-09-04T15:14:06.049Z,101879.81
2022-09-04T15:16:50.623Z,101886.63
2022-09-04T15:19:45.131Z,101887.13
2022-09-04T15:22:21.090Z,101886.13
2022-09-04T15:24:56.606Z,101884.06
2022-09-04T15:27:32.956Z,101880.66
2022-09-04T15:30:09.879Z,101885.38
2022-09-04T15:32:42.645Z,101884.06
2022-09-04T15:35:22.239Z,101878.03
2022-09-04T15:37:54.122Z,101878.03
2022-09-04T15:40:29.431Z,101881.56
2022-09-04T15:43:11.161Z,101882.66
2022-09-04T15:45:47.598Z,101886.63
2022-09-04T15:48:30.294Z,101889.16
2022-09-04T15:51:12.482Z,101888.81
2022-09-04T15:53:46.839Z,101889.75
2022-09-04T15:56:32.342Z,101889.94
2022-09-04T15:59:08.487Z,101896.50
2022-09-04T16:01:47.100Z,101891.94
2022-09-04T16:04:27.370Z,101896.22
2022-09-04T16:07:06.711Z,101895.50
2022-09-04T16:09:43.805Z,101901.66
2022-09-04T16:12:18.944Z,101896.25
2022-09-04T16:14:51.059Z,101906.84
2022-09-04T16:17:25.197Z,101902.06
2022-09-04T16:20:00.434Z,101892.38
2022-09-04T16:22:42.017Z,101905.78
2022-09-04T16:25:23.919Z,101901.72
2022-09-04T16:28:04.666Z,101903.81
2022-09-04T16:30:41.761Z,101912.09
2022-09-04T16:33:27.625Z,101912.94
2022-09-04T16:36:04.784Z,101911.88
2022-09-04T16:38:52.249Z,101912.78
2022-09-04T16:41:26.258Z,101914.44
2022-09-04T16:44:15.532Z,101919.81
2022-09-04T16:47:02.441Z,101915.94
2022-09-04T16:49:39.939Z,101909.94
2022-09-04T16:52:31.784Z,101913.47
2022-09-04T16:55:11.394Z,101913.16
2022-09-04T16:57:53.390Z,101916.66
2022-09-04T17:00:24.051Z,101918.47
2022-09-04T17:03:01.800Z,101927.97
2022-09-04T17:05:39.163Z,101917.34
2022-09-04T17:08:17.040Z,101916.94
2022-09-04T17:10:53.789Z,101924.13
2022-09-04T17:13:31.876Z,101931.69
2022-09-04T17:16:14.114Z,101925.19
2022-09-04T17:18:48.574Z,101925.50
2022-09-04T17:27:09.919Z,101930.84
2022-09-04T17:29:17.543Z,101924.72
2022-09-04T17:29:19.623Z,101922.81
2022-09-04T17:30:43.269Z,101928.13
2022-09-04T17:40:34.823Z,101934.88
2022-09-04T17:40:38.802Z,101935.28
2022-09-04T17:40:48.434Z,101939.06
2022-09-04T17:42:22.702Z,101940.28
2022-09-04T17:45:01.904Z,101943.09
2022-09-04T17:47:38.297Z,101956.44
2022-09-04T17:50:16.400Z,101951.97
2022-09-04T17:57:06.882Z,101960.66
2022-09-04T17:59:45.687Z,101956.50
2022-09-04T18:02:23.412Z,101963.66
2022-09-04T18:05:00.506Z,101962.94
2022-09-04T18:08:08.264Z,101968.25
2022-09-04T18:10:32.392Z,101976.22
2022-09-04T18:13:36.826Z,101983.56
2022-09-04T18:16:26.864Z,101981.91
2022-09-04T18:19:14.670Z,101979.91
2022-09-04T18:21:53.965Z,101990.69
2022-09-04T18:24:43.704Z,101990.50
2022-09-04T18:27:20.805Z,101991.31
2022-09-04T18:35:00.310Z,101999.56
2022-09-04T18:37:21.951Z,101999.41
2022-09-04T18:37:23.989Z,101992.28
2022-09-04T18:39:08.524Z,101998.19
2022-09-04T18:50:22.646Z,102008.38
2022-09-04T18:50:26.026Z,102004.78
2022-09-04T18:50:34.958Z,102014.69
2022-09-04T18:51:19.458Z,102010.69
2022-09-04T18:53:53.116Z,102011.47
2022-09-04T18:56:27.997Z,102017.44
2022-09-04T18:59:06.514Z,102021.69
2022-09-04T19:01:44.283Z,102021.53
2022-09-04T19:04:52.473Z,102020.56
2022-09-04T19:07:32.020Z,102025.97
2022-09-04T19:10:13.325Z,102029.56
2022-09-04T19:12:56.629Z,102021.69
2022-09-04T19:15:57.230Z,102029.59
2022-09-04T19:18:36.741Z,102023.13
2022-09-04T19:21:41.569Z,102027.00
2022-09-04T19:24:25.073Z,102033.78
2022-09-04T19:27:25.068Z,102035.59
2022-09-04T19:30:18.278Z,102031.53
2022-09-04T19:33:13.883Z,102035.63
2022-09-04T19:35:50.861Z,102038.78
2022-09-04T19:45:52.055Z,102046.50
2022-09-04T19:45:59.055Z,102041.63
2022-09-04T19:46:11.432Z,102042.78
2022-09-04T19:47:37.078Z,102047.03
2022-09-04T19:53:19.336Z,102040.78
2022-09-04T19:53:39.087Z,102040.56
2022-09-04T19:56:22.103Z,102041.53
2022-09-04T19:58:58.334Z,102040.16
2022-09-04T20:01:32.316Z,102036.25
2022-09-04T20:04:09.694Z,102042.31
2022-09-04T20:06:48.746Z,102042.31
2022-09-04T20:09:23.859Z,102038.44
2022-09-04T20:11:57.301Z,102046.84
2022-09-04T20:14:32.376Z,102041.97
2022-09-04T20:17:27.377Z,102040.59
2022-09-04T20:20:03.134Z,102045.78
2022-09-04T20:22:37.230Z,102049.59
2022-09-04T20:25:34.424Z,102066.22
2022-09-04T20:28:18.496Z,102064.94
2022-09-04T20:31:03.937Z,102064.16
2022-09-04T20:33:57.835Z,102067.50
2022-09-04T20:36:32.476Z,102068.63
2022-09-04T20:39:07.150Z,102070.28
2022-09-04T20:41:46.126Z,102065.25
2022-09-04T20:44:21.090Z,102081.03
2022-09-04T20:52:40.874Z,102075.31
2022-09-04T20:52:57.775Z,102074.31
2022-09-04T20:53:10.987Z,102075.75
2022-09-04T20:55:54.775Z,102080.63
2022-09-04T21:03:07.862Z,102090.13
2022-09-04T21:03:24.103Z,102090.69
2022-09-04T21:04:41.933Z,102090.69
2022-09-04T21:07:26.839Z,102104.25
2022-09-04T21:10:10.219Z,102091.66
2022-09-04T21:12:44.507Z,102110.81
2022-09-04T21:15:25.727Z,102104.38
2022-09-04T21:18:18.052Z,102109.97
2022-09-04T21:21:07.402Z,102110.38
2022-09-04T21:24:12.191Z,102111.22
2022-09-04T21:27:05.600Z,102115.56
2022-09-04T21:29:56.585Z,102119.06
2022-09-04T21:33:26.617Z,102117.25
2022-09-04T21:36:25.770Z,102121.44
2022-09-04T21:39:33.288Z,102122.53
2022-09-04T21:42:26.165Z,102124.91
2022-09-04T21:45:31.015Z,102125.34
2022-09-04T21:48:23.548Z,102123.94
2022-09-04T21:51:28.831Z,102129.09
2022-09-04T21:54:37.681Z,102132.00
2022-09-04T22:02:28.188Z,102132.72
2022-09-04T22:02:40.291Z,102131.31
2022-09-04T22:03:34.705Z,102137.19
2022-09-04T22:06:34.903Z,102138.28
2022-09-04T22:13:29.247Z,102139.84
2022-09-04T22:13:32.225Z,102140.97
2022-09-04T22:15:07.206Z,102132.84
2022-09-04T22:18:24.878Z,102146.22
2022-09-04T22:20:58.844Z,102141.06
2022-09-04T22:24:11.226Z,102135.84
2022-09-04T22:27:13.481Z,102150.50
2022-09-04T22:30:08.368Z,102146.03
2022-09-04T22:33:09.884Z,102138.09
2022-09-04T22:36:30.303Z,102140.19
2022-09-04T22:39:33.139Z,102136.28
2022-09-04T22:42:27.149Z,102147.13
2022-09-04T22:45:31.006Z,102137.66
2022-09-04T22:48:40.564Z,102138.22
2022-09-04T22:51:27.282Z,102127.91
2022-09-04T22:54:22.396Z,102138.94
2022-09-04T22:56:57.976Z,102142.81
2022-09-04T23:00:05.121Z,102137.50
2022-09-04T23:03:08.496Z,102141.69
2022-09-04T23:06:44.713Z,102147.81
2022-09-04T23:13:47.863Z,102143.81
2022-09-04T23:14:01.274Z,102142.84
2022-09-04T23:15:36.389Z,102139.75
2022-09-04T23:21:10.525Z,102138.94
2022-09-04T23:26:42.068Z,102138.66
2022-09-04T23:26:53.128Z,102137.09
2022-09-04T23:27:40.975Z,102132.22
2022-09-04T23:30:26.579Z,102138.06
2022-09-04T23:33:39.810Z,102134.03
2022-09-04T23:36:35.823Z,102139.34
2022-09-04T23:39:44.440Z,102133.22
2022-09-04T23:42:55.483Z,102134.88
2022-09-04T23:46:01.927Z,102134.88
2022-09-04T23:49:06.691Z,102131.25
2022-09-04T23:51:47.854Z,102128.44
2022-09-04T23:55:00.455Z,102127.88
2022-09-04T23:57:37.001Z,102130.34
